createdAt,value
2022-11-25T00:01:07.511Z,2.50
2022-11-25T00:03:36.575Z,4.47
2022-11-25T00:06:12.937Z,3.20
2022-11-25T00:08:41.412Z,3.50
2022-11-25T00:11:10.094Z,5.17
2022-11-25T00:13:39.074Z,4.80
2022-11-25T00:16:11.098Z,3.30
2022-11-25T00:18:39.988Z,4.23
2022-11-25T00:21:09.785Z,5.37
2022-11-25T00:23:38.302Z,5.03
2022-11-25T00:26:10.669Z,3.77
2022-11-25T00:28:38.509Z,4.63
2022-11-25T00:31:09.065Z,5.20
2022-11-25T00:33:37.306Z,2.57
2022-11-25T00:36:07.251Z,3.50
2022-11-25T00:38:35.337Z,2.57
2022-11-25T00:41:20.627Z,3.07
2022-11-25T00:44:05.707Z,2.23
2022-11-25T00:46:35.013Z,3.73
2022-11-25T00:49:02.765Z,3.10
2022-11-25T00:51:30.855Z,2.53
2022-11-25T00:53:59.324Z,3.53
2022-11-25T00:56:27.412Z,2.30
2022-11-25T00:58:55.229Z,2.10
2022-11-25T01:01:23.398Z,1.97
2022-11-25T01:03:53.746Z,3.30
2022-11-25T01:06:22.132Z,3.27
2022-11-25T01:08:50.199Z,2.43
2022-11-25T01:11:19.869Z,2.97
2022-11-25T01:13:48.038Z,2.97
2022-11-25T01:16:18.599Z,2.40
2022-11-25T01:18:47.251Z,2.13
2022-11-25T01:21:19.529Z,2.63
2022-11-25T01:23:48.516Z,2.53
2022-11-25T01:26:18.595Z,2.10
2022-11-25T01:28:47.257Z,2.27
2022-11-25T01:31:18.567Z,1.80
2022-11-25T01:33:47.380Z,3.83
2022-11-25T01:36:18.358Z,2.60
2022-11-25T01:38:50.388Z,2.63
2022-11-25T01:41:18.275Z,5.33
2022-11-25T01:44:05.000Z,3.30
2022-11-25T01:46:54.177Z,2.93
2022-11-25T01:49:28.931Z,2.00
2022-11-25T01:52:04.308Z,2.07
2022-11-25T01:54:37.646Z,1.90
2022-11-25T01:57:09.592Z,2.67
2022-11-25T01:59:43.531Z,2.03
2022-11-25T02:02:13.136Z,2.80
2022-11-25T02:04:42.389Z,1.90
2022-11-25T02:07:20.159Z,2.57
2022-11-25T02:09:49.132Z,2.27
2022-11-25T02:12:20.546Z,2.17
2022-11-25T02:14:51.812Z,2.47
2022-11-25T02:17:20.497Z,1.73
2022-11-25T02:20:00.560Z,1.60
2022-11-25T02:22:43.334Z,2.07
2022-11-25T02:25:17.198Z,2.37
2022-11-25T02:27:49.510Z,3.27
2022-11-25T02:30:18.111Z,3.53
2022-11-25T02:32:46.875Z,1.57
2022-11-25T02:35:27.808Z,2.80
2022-11-25T02:38:00.061Z,1.77
2022-11-25T02:40:31.151Z,1.57
2022-11-25T02:43:01.277Z,2.23
2022-11-25T02:45:48.940Z,2.30
2022-11-25T02:48:17.179Z,2.00
2022-11-25T02:50:45.365Z,1.57
2022-11-25T02:53:13.504Z,1.77
2022-11-25T02:55:42.901Z,3.20
2022-11-25T02:58:10.826Z,2.60
2022-11-25T03:00:39.145Z,1.13
2022-11-25T03:03:07.258Z,7.97
2022-11-25T03:05:35.095Z,3.10
2022-11-25T03:08:03.359Z,2.60
2022-11-25T03:10:31.900Z,1.60
2022-11-25T03:13:01.284Z,1.23
2022-11-25T03:15:29.374Z,2.10
2022-11-25T03:17:57.633Z,1.80
2022-11-25T03:20:25.921Z,1.70
2022-11-25T03:22:53.885Z,1.17
2022-11-25T03:25:22.070Z,5.50
2022-11-25T03:27:49.886Z,1.57
2022-11-25T03:30:20.843Z,3.70
2022-11-25T03:32:48.860Z,4.07
2022-11-25T03:35:17.850Z,10.50
2022-11-25T03:37:46.490Z,1.90
2022-11-25T03:40:16.375Z,3.47
2022-11-25T03:42:44.867Z,2.07
2022-11-25T03:45:14.263Z,1.27
2022-11-25T03:47:44.439Z,1.83
2022-11-25T03:50:14.246Z,2.43
2022-11-25T03:52:42.524Z,1.50
2022-11-25T03:55:12.932Z,1.57
2022-11-25T03:57:40.804Z,3.10
2022-11-25T04:00:10.584Z,2.13
2022-11-25T04:02:38.552Z,1.33
2022-11-25T04:05:08.700Z,1.63
2022-11-25T04:07:36.595Z,1.37
2022-11-25T04:10:05.013Z,1.73
2022-11-25T04:12:48.167Z,1.13
2022-11-25T04:15:16.820Z,2.70
2022-11-25T04:17:44.620Z,2.47
2022-11-25T04:20:15.410Z,1.40
2022-11-25T04:22:43.319Z,1.40
2022-11-25T04:25:11.534Z,3.20
2022-11-25T04:27:39.410Z,2.60
2022-11-25T04:30:09.330Z,1.50
2022-11-25T04:32:39.175Z,2.80
2022-11-25T04:35:07.975Z,3.63
2022-11-25T04:37:37.706Z,2.27
2022-11-25T04:40:06.798Z,1.67
2022-11-25T04:42:36.738Z,2.00
2022-11-25T04:45:22.522Z,3.80
2022-11-25T04:47:50.829Z,2.53
2022-11-25T04:50:21.383Z,3.93
2022-11-25T04:52:50.522Z,3.87
2022-11-25T04:55:18.941Z,2.77
2022-11-25T04:57:46.809Z,2.77
2022-11-25T05:00:14.293Z,2.30
2022-11-25T05:02:42.940Z,3.97
2022-11-25T05:05:10.942Z,4.47
2022-11-25T05:07:39.394Z,5.00
2022-11-25T05:10:09.809Z,2.77
2022-11-25T05:12:38.181Z,3.93
2022-11-25T05:15:06.581Z,2.27
2022-11-25T05:17:34.592Z,1.90
2022-11-25T05:20:02.478Z,2.10
2022-11-25T05:22:32.079Z,2.67
2022-11-25T05:25:00.437Z,3.03
2022-11-25T05:27:29.691Z,2.37
2022-11-25T05:29:57.455Z,26.30
2022-11-25T05:32:25.432Z,2.90
2022-11-25T05:34:53.198Z,3.27
2022-11-25T05:37:24.387Z,2.67
2022-11-25T05:39:53.073Z,3.93
2022-11-25T05:42:20.884Z,1.80
2022-11-25T05:44:49.973Z,1.60
2022-11-25T05:47:18.110Z,1.47
2022-11-25T05:49:45.862Z,2.87
2022-11-25T05:52:13.628Z,1.77
2022-11-25T05:54:41.553Z,1.67
2022-11-25T05:57:09.352Z,4.13
2022-11-25T05:59:37.113Z,3.80
2022-11-25T06:02:06.626Z,4.10
2022-11-25T06:04:34.964Z,3.50
2022-11-25T06:07:03.199Z,3.20
2022-11-25T06:09:31.364Z,1.90
2022-11-25T06:11:59.190Z,2.40
2022-11-25T06:14:27.048Z,1.57
2022-11-25T06:16:55.156Z,2.80
2022-11-25T06:19:24.269Z,2.87
2022-11-25T06:21:52.010Z,3.47
2022-11-25T06:24:19.949Z,2.43
2022-11-25T06:26:47.699Z,3.90
2022-11-25T06:29:16.052Z,3.00
2022-11-25T06:31:44.344Z,1.93
2022-11-25T06:34:12.180Z,3.10
2022-11-25T06:36:41.313Z,2.00
2022-11-25T06:39:09.901Z,3.57
2022-11-25T06:41:37.776Z,2.30
2022-11-25T06:44:05.876Z,2.97
2022-11-25T06:46:33.929Z,3.53
2022-11-25T06:49:01.737Z,2.73
2022-11-25T06:51:29.491Z,3.03
2022-11-25T06:53:58.757Z,3.80
2022-11-25T06:56:28.401Z,2.63
2022-11-25T06:58:56.915Z,3.10
2022-11-25T07:01:26.672Z,2.50
2022-11-25T07:03:55.897Z,2.33
2022-11-25T07:06:24.078Z,3.27
2022-11-25T07:08:52.493Z,2.10
2022-11-25T07:11:23.440Z,4.57
2022-11-25T07:13:54.298Z,3.13
2022-11-25T07:16:22.186Z,3.20
2022-11-25T07:18:50.589Z,2.70
2022-11-25T07:21:20.678Z,3.00
2022-11-25T07:23:49.062Z,3.53
2022-11-25T07:26:19.870Z,2.70
2022-11-25T07:28:49.934Z,2.87
2022-11-25T07:31:24.252Z,2.43
2022-11-25T07:33:56.504Z,2.67
2022-11-25T07:36:24.871Z,4.30
2022-11-25T07:38:52.801Z,2.80
2022-11-25T07:41:23.152Z,2.30
2022-11-25T07:43:54.213Z,2.50
2022-11-25T07:46:27.087Z,3.30
2022-11-25T07:48:56.695Z,3.47
2022-11-25T07:51:27.471Z,5.30
2022-11-25T07:53:56.637Z,4.83
2022-11-25T07:56:25.261Z,2.73
2022-11-25T07:58:55.225Z,4.07
2022-11-25T08:01:23.350Z,3.27
2022-11-25T08:03:52.324Z,3.00
2022-11-25T08:06:22.296Z,3.53
2022-11-25T08:08:52.859Z,2.70
2022-11-25T08:11:22.682Z,2.63
2022-11-25T08:13:51.123Z,2.93
2022-11-25T08:16:22.676Z,3.67
2022-11-25T08:18:51.098Z,2.90
2022-11-25T08:21:20.118Z,6.63
2022-11-25T08:23:48.981Z,3.97
2022-11-25T08:26:18.701Z,4.47
2022-11-25T08:28:47.209Z,3.60
2022-11-25T08:31:17.315Z,3.13
2022-11-25T08:33:47.236Z,3.80
2022-11-25T08:36:15.782Z,3.10
2022-11-25T08:38:44.141Z,3.63
2022-11-25T08:41:13.187Z,3.50
2022-11-25T08:43:41.453Z,3.73
2022-11-25T08:46:11.278Z,3.57
2022-11-25T08:48:39.970Z,3.33
2022-11-25T08:51:12.312Z,3.83
2022-11-25T08:53:41.417Z,4.70
2022-11-25T08:56:10.459Z,4.07
2022-11-25T08:58:39.123Z,3.27
2022-11-25T09:01:07.938Z,2.70
2022-11-25T09:03:38.869Z,4.10
2022-11-25T09:06:07.699Z,3.50
2022-11-25T09:08:38.647Z,3.83
2022-11-25T09:11:07.199Z,4.37
2022-11-25T09:13:35.450Z,4.40
2022-11-25T09:16:03.609Z,3.57
2022-11-25T09:18:32.588Z,2.43
2022-11-25T09:21:00.897Z,3.97
2022-11-25T09:23:28.762Z,3.23
2022-11-25T09:25:59.667Z,4.23
2022-11-25T09:28:28.036Z,2.70
2022-11-25T09:30:56.131Z,3.53
2022-11-25T09:33:24.559Z,3.47
2022-11-25T09:35:52.424Z,3.57
2022-11-25T09:38:20.397Z,2.43
2022-11-25T09:40:56.506Z,3.10
2022-11-25T09:43:57.054Z,3.33
2022-11-25T09:46:51.367Z,4.63
2022-11-25T09:49:31.955Z,3.23
2022-11-25T09:52:08.413Z,4.00
2022-11-25T09:54:39.165Z,4.30
2022-11-25T09:57:22.800Z,3.00
2022-11-25T10:00:02.497Z,3.67
2022-11-25T10:02:36.721Z,3.50
2022-11-25T10:05:09.629Z,3.60
2022-11-25T10:07:40.635Z,4.87
2022-11-25T10:10:19.133Z,3.90
2022-11-25T10:12:50.539Z,3.00
2022-11-25T10:15:24.618Z,3.47
2022-11-25T10:17:56.813Z,3.17
2022-11-25T10:20:28.870Z,6.05
2022-11-25T10:23:01.304Z,3.05
2022-11-25T10:25:31.750Z,3.15
2022-11-25T10:28:01.668Z,4.38
2022-11-25T10:30:40.807Z,4.15
2022-11-25T10:33:19.368Z,3.15
2022-11-25T10:35:50.961Z,4.97
2022-11-25T10:38:25.302Z,6.00
2022-11-25T10:40:55.941Z,4.75
2022-11-25T10:43:27.284Z,3.55
2022-11-25T10:46:15.677Z,3.78
2022-11-25T10:48:55.674Z,3.78
2022-11-25T10:51:36.682Z,4.22
2022-11-25T10:54:18.114Z,4.90
2022-11-25T10:56:51.990Z,3.85
2022-11-25T10:59:31.778Z,6.22
2022-11-25T11:02:25.029Z,4.57
2022-11-25T11:04:56.941Z,3.50
2022-11-25T11:07:26.237Z,2.80
2022-11-25T11:09:54.713Z,3.40
2022-11-25T11:12:24.491Z,3.85
2022-11-25T11:14:54.704Z,4.72
2022-11-25T11:17:37.108Z,3.13
2022-11-25T11:20:22.785Z,5.40
2022-11-25T11:22:57.546Z,3.88
2022-11-25T11:25:34.584Z,5.45
2022-11-25T11:28:03.548Z,4.30
2022-11-25T11:30:33.273Z,3.95
2022-11-25T11:33:06.221Z,5.77
2022-11-25T11:35:51.912Z,4.43
2022-11-25T11:38:30.300Z,4.70
2022-11-25T11:41:09.669Z,4.03
2022-11-25T11:43:57.830Z,5.10
2022-11-25T11:46:37.921Z,4.15
2022-11-25T11:49:29.061Z,4.53
2022-11-25T11:52:06.415Z,5.10
2022-11-25T11:54:37.921Z,4.80
2022-11-25T11:57:11.700Z,5.32
2022-11-25T11:59:49.298Z,4.97
2022-11-25T12:02:25.167Z,7.03
2022-11-25T12:05:01.596Z,5.13
2022-11-25T12:07:35.584Z,7.80
2022-11-25T12:10:09.040Z,4.70
2022-11-25T12:12:43.638Z,5.88
2022-11-25T12:15:20.753Z,5.45
2022-11-25T12:17:54.337Z,4.85
2022-11-25T12:20:39.666Z,5.03
2022-11-25T12:23:12.294Z,5.70
2022-11-25T12:25:42.957Z,6.43
2022-11-25T12:28:16.350Z,7.17
2022-11-25T12:31:05.643Z,5.67
2022-11-25T12:33:45.033Z,5.60
2022-11-25T12:36:19.882Z,5.97
2022-11-25T12:38:55.136Z,7.45
2022-11-25T12:41:30.891Z,7.37
2022-11-25T12:44:07.201Z,7.30
2022-11-25T12:46:39.730Z,7.27
2022-11-25T12:49:15.291Z,7.33
2022-11-25T12:52:12.376Z,7.75
2022-11-25T12:55:05.580Z,6.45
2022-11-25T12:58:08.243Z,8.57
2022-11-25T13:00:50.772Z,7.03
2022-11-25T13:04:01.382Z,7.85
2022-11-25T13:07:19.729Z,9.23
2022-11-25T13:10:44.507Z,7.03
2022-11-25T13:13:25.912Z,7.10
2022-11-25T13:15:56.792Z,8.93
2022-11-25T13:18:28.199Z,7.20
2022-11-25T13:20:57.811Z,7.53
2022-11-25T13:23:31.118Z,8.77
2022-11-25T13:26:37.763Z,7.10
2022-11-25T13:29:56.440Z,7.40
2022-11-25T13:32:31.502Z,9.33
2022-11-25T13:35:38.939Z,6.22
2022-11-25T13:38:27.854Z,8.40
2022-11-25T13:41:00.505Z,9.13
2022-11-25T13:43:28.796Z,7.87
2022-11-25T13:45:57.612Z,7.73
2022-11-25T13:48:30.172Z,8.70
2022-11-25T13:51:18.391Z,8.05
2022-11-25T13:53:53.811Z,7.83
2022-11-25T13:56:30.221Z,8.18
2022-11-25T13:59:21.822Z,8.60
2022-11-25T14:01:55.902Z,8.60
2022-11-25T14:04:42.437Z,6.87
2022-11-25T14:07:29.028Z,9.23
2022-11-25T14:10:23.230Z,8.65
2022-11-25T14:13:07.137Z,8.87
2022-11-25T14:15:48.365Z,9.83
2022-11-25T14:19:12.391Z,8.33
2022-11-25T14:21:51.529Z,9.03
2022-11-25T14:24:32.081Z,9.40
2022-11-25T14:27:02.082Z,10.47
2022-11-25T14:29:36.838Z,11.83
2022-11-25T14:32:09.937Z,9.17
2022-11-25T14:34:42.746Z,8.37
2022-11-25T14:37:17.573Z,9.57
2022-11-25T14:39:53.990Z,8.93
2022-11-25T14:42:25.161Z,9.97
2022-11-25T14:44:55.805Z,8.63
2022-11-25T14:47:25.462Z,9.90
2022-11-25T14:50:18.842Z,8.23
2022-11-25T14:52:47.137Z,10.13
2022-11-25T14:55:25.562Z,10.63
2022-11-25T14:57:54.292Z,9.40
2022-11-25T15:00:23.239Z,11.03
2022-11-25T15:02:59.778Z,9.13
2022-11-25T15:05:32.225Z,11.60
2022-11-25T15:08:04.230Z,9.53
2022-11-25T15:10:39.544Z,11.03
2022-11-25T15:13:13.941Z,9.10
2022-11-25T15:15:45.269Z,10.00
2022-11-25T15:18:20.325Z,8.33
2022-11-25T15:20:51.201Z,10.47
2022-11-25T15:23:27.045Z,10.00
2022-11-25T15:25:55.208Z,14.30
2022-11-25T15:28:23.232Z,11.33
2022-11-25T15:30:59.278Z,10.67
2022-11-25T15:33:28.634Z,11.23
2022-11-25T15:35:56.899Z,13.00
2022-11-25T15:38:42.217Z,12.13
2022-11-25T15:41:22.455Z,10.70
2022-11-25T15:43:53.847Z,10.17
2022-11-25T15:46:23.190Z,10.53
2022-11-25T15:48:54.345Z,9.30
2022-11-25T15:51:31.461Z,10.60
2022-11-25T15:54:05.497Z,9.60
2022-11-25T15:56:36.739Z,10.20
2022-11-25T15:59:04.669Z,11.77
2022-11-25T16:01:32.994Z,12.87
2022-11-25T16:04:20.952Z,10.93
2022-11-25T16:06:57.087Z,10.37
2022-11-25T16:09:31.215Z,10.63
2022-11-25T16:12:07.083Z,9.73
2022-11-25T16:14:38.094Z,9.83
2022-11-25T16:17:11.205Z,10.37
2022-11-25T16:19:42.164Z,11.83
2022-11-25T16:22:15.523Z,11.23
2022-11-25T16:24:50.610Z,9.67
2022-11-25T16:27:25.030Z,12.37
2022-11-25T16:29:55.724Z,11.57
2022-11-25T16:32:25.698Z,11.33
2022-11-25T16:34:56.577Z,10.70
2022-11-25T16:37:25.133Z,10.07
2022-11-25T16:39:54.401Z,12.13
2022-11-25T16:42:23.459Z,9.03
2022-11-25T16:44:52.637Z,10.97
2022-11-25T16:47:22.463Z,10.93
2022-11-25T16:49:50.416Z,12.63
2022-11-25T16:52:18.231Z,11.37
2022-11-25T16:54:47.508Z,10.27
2022-11-25T16:57:19.984Z,11.17
2022-11-25T16:59:54.590Z,11.83
2022-11-25T17:02:26.296Z,13.70
2022-11-25T17:04:54.329Z,11.07
2022-11-25T17:07:38.357Z,15.13
2022-11-25T17:10:08.046Z,13.97
2022-11-25T17:12:39.137Z,12.07
2022-11-25T17:15:12.710Z,15.20
2022-11-25T17:17:40.955Z,10.57
2022-11-25T17:20:16.849Z,15.03
2022-11-25T17:22:44.727Z,23.53
2022-11-25T17:25:13.354Z,113.30
2022-11-25T17:27:43.409Z,73.50
2022-11-25T17:30:18.559Z,14.73
2022-11-25T17:32:47.502Z,165.00
2022-11-25T17:35:20.079Z,131.03
2022-11-25T17:37:49.244Z,88.47
2022-11-25T17:40:17.684Z,78.23
2022-11-25T17:42:48.813Z,35.23
2022-11-25T17:45:18.577Z,13.87
2022-11-25T17:47:46.659Z,13.93
2022-11-25T17:50:19.802Z,13.20
2022-11-25T17:52:47.829Z,12.30
2022-11-25T17:55:19.526Z,13.90
2022-11-25T17:57:49.552Z,12.10
2022-11-25T18:00:19.706Z,12.07
2022-11-25T18:02:47.547Z,11.50
2022-11-25T18:05:17.272Z,13.37
2022-11-25T18:07:45.705Z,14.03
2022-11-25T18:10:14.930Z,14.80
2022-11-25T18:12:44.336Z,14.27
2022-11-25T18:15:19.087Z,15.83
2022-11-25T18:17:47.662Z,15.17
2022-11-25T18:20:18.037Z,15.47
2022-11-25T18:22:46.221Z,13.10
2022-11-25T18:25:15.518Z,13.13
2022-11-25T18:27:44.338Z,14.77
2022-11-25T18:30:20.908Z,16.20
2022-11-25T18:32:49.094Z,15.17
2022-11-25T18:35:19.048Z,14.13
2022-11-25T18:37:47.269Z,14.77
2022-11-25T18:40:18.813Z,13.27
2022-11-25T18:42:49.977Z,15.50
2022-11-25T18:45:22.723Z,15.77
2022-11-25T18:47:51.383Z,18.23
2022-11-25T18:50:21.319Z,16.50
2022-11-25T18:52:49.786Z,15.87
2022-11-25T18:55:19.833Z,18.70
2022-11-25T18:57:50.387Z,16.57
2022-11-25T19:00:37.549Z,16.00
2022-11-25T19:03:05.374Z,16.77
2022-11-25T19:05:34.682Z,16.73
2022-11-25T19:08:02.829Z,18.67
2022-11-25T19:10:35.066Z,16.00
2022-11-25T19:13:06.487Z,15.80
2022-11-25T19:15:37.472Z,16.27
2022-11-25T19:18:07.993Z,14.83
2022-11-25T19:20:35.729Z,15.50
2022-11-25T19:23:17.260Z,16.13
2022-11-25T19:25:45.897Z,17.70
2022-11-25T19:28:16.224Z,17.07
2022-11-25T19:30:47.856Z,17.50
2022-11-25T19:33:22.822Z,16.00
2022-11-25T19:35:51.435Z,18.87
2022-11-25T19:38:25.087Z,17.97
2022-11-25T19:40:53.683Z,19.13
2022-11-25T19:43:22.651Z,21.20
2022-11-25T19:45:51.978Z,15.47
2022-11-25T19:48:21.702Z,17.23
2022-11-25T19:50:51.983Z,17.57
2022-11-25T19:53:21.561Z,15.07
2022-11-25T19:55:50.127Z,15.10
2022-11-25T19:58:17.887Z,16.40
2022-11-25T20:00:48.351Z,16.50
2022-11-25T20:03:22.253Z,14.07
2022-11-25T20:05:52.187Z,18.40
2022-11-25T20:08:21.848Z,17.47
2022-11-25T20:10:49.882Z,15.80
2022-11-25T20:13:17.792Z,15.93
2022-11-25T20:15:46.743Z,16.63
2022-11-25T20:18:18.375Z,15.57
2022-11-25T20:20:49.619Z,16.20
2022-11-25T20:23:25.581Z,14.17
2022-11-25T20:25:53.454Z,14.83
2022-11-25T20:28:23.415Z,15.13
2022-11-25T20:30:52.836Z,14.83
2022-11-25T20:33:24.647Z,17.03
2022-11-25T20:36:00.539Z,14.47
2022-11-25T20:38:32.201Z,15.00
2022-11-25T20:41:00.919Z,15.63
2022-11-25T20:43:31.198Z,13.60
2022-11-25T20:46:00.840Z,14.17
2022-11-25T20:48:29.879Z,15.83
2022-11-25T20:51:01.245Z,14.00
2022-11-25T20:53:32.089Z,14.50
2022-11-25T20:56:00.263Z,14.73
2022-11-25T20:58:30.770Z,14.67
2022-11-25T21:00:59.723Z,15.27
2022-11-25T21:03:28.297Z,15.10
2022-11-25T21:05:58.214Z,11.73
2022-11-25T21:08:31.515Z,14.63
2022-11-25T21:11:00.189Z,12.67
2022-11-25T21:13:30.045Z,13.97
2022-11-25T21:15:58.237Z,16.77
2022-11-25T21:18:26.531Z,13.93
2022-11-25T21:20:56.529Z,12.57
2022-11-25T21:23:28.925Z,12.77
2022-11-25T21:26:02.518Z,13.83
2022-11-25T21:28:30.475Z,14.80
2022-11-25T21:30:58.343Z,13.07
2022-11-25T21:33:26.198Z,15.77
2022-11-25T21:35:54.204Z,13.97
2022-11-25T21:38:23.711Z,14.80
2022-11-25T21:40:54.841Z,17.23
2022-11-25T21:43:25.836Z,15.00
2022-11-25T21:45:57.365Z,12.67
2022-11-25T21:48:27.407Z,12.83
2022-11-25T21:50:55.209Z,11.77
2022-11-25T21:53:23.045Z,15.97
2022-11-25T21:55:53.104Z,12.83
2022-11-25T21:58:23.659Z,15.17
2022-11-25T22:00:55.875Z,13.27
2022-11-25T22:03:25.782Z,16.07
2022-11-25T22:05:53.834Z,12.40
2022-11-25T22:08:22.061Z,12.90
2022-11-25T22:10:54.275Z,12.53
2022-11-25T22:13:24.780Z,11.77
2022-11-25T22:15:56.991Z,13.47
2022-11-25T22:18:32.268Z,13.80
2022-11-25T22:21:00.693Z,11.40
2022-11-25T22:23:29.226Z,13.53
2022-11-25T22:25:58.923Z,11.87
2022-11-25T22:28:28.621Z,11.10
2022-11-25T22:30:58.565Z,14.40
2022-11-25T22:33:30.916Z,12.97
2022-11-25T22:35:59.536Z,11.23
2022-11-25T22:38:29.096Z,11.53
2022-11-25T22:41:02.115Z,14.83
2022-11-25T22:43:33.886Z,15.33
2022-11-25T22:46:02.423Z,13.53
2022-11-25T22:48:34.016Z,12.33
2022-11-25T22:51:01.871Z,10.97
2022-11-25T22:53:30.069Z,14.30
2022-11-25T22:55:59.240Z,14.20
2022-11-25T22:58:28.069Z,16.17
2022-11-25T23:00:57.880Z,14.43
2022-11-25T23:03:29.224Z,14.67
2022-11-25T23:05:58.310Z,13.77
2022-11-25T23:08:27.588Z,15.03
2022-11-25T23:10:56.674Z,16.90
2022-11-25T23:13:26.339Z,17.20
2022-11-25T23:15:55.912Z,13.97
2022-11-25T23:18:28.104Z,13.83
2022-11-25T23:20:56.041Z,13.33
2022-11-25T23:23:26.998Z,13.80
2022-11-25T23:25:55.209Z,13.07
2022-11-25T23:28:23.030Z,14.97
2022-11-25T23:30:53.905Z,11.93
2022-11-25T23:33:29.964Z,12.90
2022-11-25T23:35:58.378Z,11.00
2022-11-25T23:38:29.127Z,12.30
2022-11-25T23:40:56.962Z,11.97
2022-11-25T23:43:24.742Z,9.83
2022-11-25T23:45:56.417Z,12.00
2022-11-25T23:48:27.237Z,9.50
2022-11-25T23:50:56.589Z,14.70
2022-11-25T23:53:29.276Z,8.80
2022-11-25T23:55:57.208Z,13.70
2022-11-25T23:58:25.333Z,12.83
